createdAt,value
2018-04-22T00:00:05.268Z,16.10
2018-04-22T00:01:12.116Z,16.10
2018-04-22T00:02:17.156Z,16.00
2018-04-22T00:03:25.981Z,16.00
2018-04-22T00:04:36.993Z,16.00
2018-04-22T00:05:43.917Z,16.00
2018-04-22T00:06:47.998Z,16.00
2018-04-22T00:07:52.998Z,16.10
2018-04-22T00:08:58.961Z,16.00
2018-04-22T00:10:05.701Z,16.00
2018-04-22T00:11:13.485Z,15.80
2018-04-22T00:12:18.313Z,15.80
2018-04-22T00:13:25.694Z,15.90
2018-04-22T00:14:32.435Z,15.90
2018-04-22T00:15:39.313Z,15.90
2018-04-22T00:16:44.429Z,15.90
2018-04-22T00:17:50.704Z,15.90
2018-04-22T00:18:56.436Z,15.90
2018-04-22T00:20:01.679Z,15.90
2018-04-22T00:21:07.259Z,15.80
2018-04-22T00:22:12.482Z,15.80
2018-04-22T00:23:17.286Z,15.70
2018-04-22T00:24:23.971Z,15.60
2018-04-22T00:25:28.882Z,15.50
2018-04-22T00:26:35.861Z,15.50
2018-04-22T00:27:40.982Z,15.50
2018-04-22T00:28:46.036Z,15.40
2018-04-22T00:29:51.134Z,15.40
2018-04-22T00:30:55.834Z,15.40
2018-04-22T00:32:00.546Z,15.40
2018-04-22T00:33:06.976Z,15.40
2018-04-22T00:34:13.687Z,15.40
2018-04-22T00:35:19.381Z,15.40
2018-04-22T00:36:27.651Z,15.40
2018-04-22T00:37:33.116Z,15.40
2018-04-22T00:38:38.052Z,15.40
2018-04-22T00:39:42.176Z,15.40
2018-04-22T00:40:46.325Z,15.40
2018-04-22T00:41:51.695Z,15.40
2018-04-22T00:42:56.802Z,15.40
2018-04-22T00:44:03.210Z,15.40
2018-04-22T00:45:08.990Z,15.40
2018-04-22T00:46:15.599Z,15.30
2018-04-22T00:47:20.388Z,15.30
2018-04-22T00:48:24.542Z,15.30
2018-04-22T00:49:30.207Z,15.20
2018-04-22T00:50:36.062Z,15.20
2018-04-22T00:51:41.849Z,15.10
2018-04-22T00:52:45.949Z,15.10
2018-04-22T00:53:58.861Z,15.10
2018-04-22T00:55:03.454Z,15.00
2018-04-22T00:56:08.890Z,15.00
2018-04-22T00:57:14.355Z,15.00
2018-04-22T00:58:18.796Z,15.00
2018-04-22T00:59:22.893Z,14.90
2018-04-22T01:00:27.007Z,14.90
2018-04-22T01:01:31.861Z,14.80
2018-04-22T01:02:36.027Z,14.80
2018-04-22T01:03:40.951Z,14.70
2018-04-22T01:04:45.969Z,14.70
2018-04-22T01:05:50.139Z,14.60
2018-04-22T01:06:55.537Z,14.60
2018-04-22T01:07:59.633Z,14.60
2018-04-22T01:09:04.288Z,14.60
2018-04-22T01:10:09.515Z,14.50
2018-04-22T01:11:13.856Z,14.50
2018-04-22T01:12:19.632Z,14.50
2018-04-22T01:13:25.049Z,14.50
2018-04-22T01:14:32.474Z,14.50
2018-04-22T01:15:37.624Z,14.50
2018-04-22T01:16:45.743Z,14.50
2018-04-22T01:17:50.632Z,14.50
2018-04-22T01:18:54.782Z,14.50
2018-04-22T01:20:00.689Z,14.50
2018-04-22T01:21:04.923Z,14.50
2018-04-22T01:22:10.569Z,14.50
2018-04-22T01:23:16.475Z,14.60
2018-04-22T01:24:21.244Z,14.50
2018-04-22T01:25:26.362Z,14.70
2018-04-22T01:26:31.961Z,14.80
2018-04-22T01:27:36.814Z,14.80
2018-04-22T01:28:41.733Z,14.90
2018-04-22T01:29:46.605Z,15.00
2018-04-22T01:30:51.024Z,14.90
2018-04-22T01:31:55.238Z,15.00
2018-04-22T01:33:00.262Z,15.00
2018-04-22T01:34:04.607Z,15.00
2018-04-22T01:35:11.937Z,15.00
2018-04-22T01:36:19.021Z,15.00
2018-04-22T01:37:23.150Z,15.00
2018-04-22T01:38:27.984Z,15.00
2018-04-22T01:39:32.994Z,15.00
2018-04-22T01:40:38.338Z,14.90
2018-04-22T01:41:43.554Z,14.80
2018-04-22T01:42:49.163Z,14.70
2018-04-22T01:43:55.343Z,14.60
2018-04-22T01:45:00.243Z,14.60
2018-04-22T01:46:04.386Z,14.50
2018-04-22T01:47:08.538Z,14.50
2018-04-22T01:48:12.718Z,14.40
2018-04-22T01:49:16.823Z,14.40
2018-04-22T01:50:22.107Z,14.30
2018-04-22T01:51:27.013Z,14.40
2018-04-22T01:52:31.282Z,14.40
2018-04-22T01:53:36.672Z,14.30
2018-04-22T01:54:42.231Z,14.30
2018-04-22T01:55:46.321Z,14.30
2018-04-22T01:56:50.552Z,14.30
2018-04-22T01:57:54.735Z,14.30
2018-04-22T01:58:58.910Z,14.30
2018-04-22T02:00:03.916Z,14.40
2018-04-22T02:01:08.445Z,14.40
2018-04-22T02:02:15.545Z,14.50
2018-04-22T02:03:20.423Z,14.40
2018-04-22T02:04:26.646Z,14.40
2018-04-22T02:05:33.981Z,14.40
2018-04-22T02:06:38.481Z,14.40
2018-04-22T02:07:44.290Z,14.30
2018-04-22T02:08:48.545Z,14.30
2018-04-22T02:09:54.713Z,14.30
2018-04-22T02:11:00.859Z,14.30
2018-04-22T02:12:05.734Z,14.20
2018-04-22T02:13:10.583Z,14.20
2018-04-22T02:14:16.292Z,14.10
2018-04-22T02:15:22.951Z,14.10
2018-04-22T02:16:28.531Z,14.10
2018-04-22T02:17:34.509Z,14.10
2018-04-22T02:18:40.412Z,14.00
2018-04-22T02:19:47.346Z,14.00
2018-04-22T02:20:52.240Z,14.00
2018-04-22T02:21:59.702Z,14.00
2018-04-22T02:23:04.006Z,13.90
2018-04-22T02:24:08.102Z,14.00
2018-04-22T02:25:12.983Z,14.00
2018-04-22T02:26:18.047Z,14.00
2018-04-22T02:27:23.874Z,14.10
2018-04-22T02:28:28.764Z,14.30
2018-04-22T02:29:35.308Z,14.30
2018-04-22T02:30:40.161Z,14.30
2018-04-22T02:31:45.264Z,14.30
2018-04-22T02:32:49.962Z,14.40
2018-04-22T02:33:56.718Z,14.40
2018-04-22T02:35:01.853Z,14.30
2018-04-22T02:36:08.731Z,14.30
2018-04-22T02:37:13.453Z,14.20
2018-04-22T02:38:19.326Z,14.10
2018-04-22T02:39:24.585Z,14.10
2018-04-22T02:40:30.611Z,14.00
2018-04-22T02:41:36.099Z,14.00
2018-04-22T02:42:40.758Z,13.90
2018-04-22T02:43:46.529Z,13.80
2018-04-22T02:44:52.159Z,13.80
2018-04-22T02:45:56.282Z,13.80
2018-04-22T02:47:02.174Z,13.80
2018-04-22T02:48:07.049Z,13.70
2018-04-22T02:49:11.608Z,13.70
2018-04-22T02:50:15.759Z,13.70
2018-04-22T02:51:19.914Z,13.70
2018-04-22T02:52:26.795Z,13.60
2018-04-22T02:53:31.655Z,13.70
2018-04-22T02:54:35.771Z,13.70
2018-04-22T02:55:40.794Z,13.70
2018-04-22T02:56:45.348Z,13.70
2018-04-22T02:57:50.187Z,13.60
2018-04-22T02:58:54.308Z,13.60
2018-04-22T02:59:58.391Z,13.60
2018-04-22T03:01:02.500Z,13.70
2018-04-22T03:02:07.363Z,13.60
2018-04-22T03:03:11.766Z,13.60
2018-04-22T03:04:16.323Z,13.60
2018-04-22T03:05:22.391Z,13.60
2018-04-22T03:06:26.714Z,13.60
2018-04-22T03:07:31.950Z,13.50
2018-04-22T03:08:36.193Z,13.60
2018-04-22T03:09:40.280Z,13.60
2018-04-22T03:10:45.509Z,13.60
2018-04-22T03:11:50.425Z,13.70
2018-04-22T03:12:55.512Z,13.70
2018-04-22T03:14:03.094Z,13.70
2018-04-22T03:15:12.074Z,13.70
2018-04-22T03:16:19.714Z,13.70
2018-04-22T03:17:25.030Z,13.80
2018-04-22T03:18:29.983Z,13.90
2018-04-22T03:19:35.752Z,13.90
2018-04-22T03:20:41.553Z,14.00
2018-04-22T03:21:47.844Z,14.00
2018-04-22T03:22:53.618Z,14.10
2018-04-22T03:24:00.706Z,14.10
2018-04-22T03:25:06.949Z,14.20
2018-04-22T03:26:12.071Z,14.20
2018-04-22T03:27:16.562Z,14.20
2018-04-22T03:28:21.645Z,14.20
2018-04-22T03:29:25.765Z,14.20
2018-04-22T03:30:30.819Z,14.20
2018-04-22T03:31:36.925Z,14.30
2018-04-22T03:32:41.490Z,14.30
2018-04-22T03:33:47.265Z,14.30
2018-04-22T03:34:51.373Z,14.30
2018-04-22T03:35:55.418Z,14.30
2018-04-22T03:37:00.419Z,14.40
2018-04-22T03:38:04.574Z,14.30
2018-04-22T03:39:08.701Z,14.40
2018-04-22T03:40:12.823Z,14.40
2018-04-22T03:41:16.926Z,14.40
2018-04-22T03:42:21.042Z,14.40
2018-04-22T03:43:25.179Z,14.50
2018-04-22T03:44:29.377Z,14.40
2018-04-22T03:45:34.367Z,14.50
2018-04-22T03:46:38.481Z,14.50
2018-04-22T03:47:43.243Z,14.50
2018-04-22T03:48:47.715Z,14.60
2018-04-22T03:49:53.435Z,14.60
2018-04-22T03:50:57.958Z,14.60
2018-04-22T03:52:02.059Z,14.60
2018-04-22T03:53:06.166Z,14.70
2018-04-22T03:54:10.285Z,14.70
2018-04-22T03:55:15.350Z,14.80
2018-04-22T03:56:19.505Z,14.80
2018-04-22T03:57:23.750Z,14.90
2018-04-22T03:58:30.455Z,14.90
2018-04-22T03:59:34.742Z,14.90
2018-04-22T04:00:39.273Z,15.00
2018-04-22T04:01:44.769Z,14.90
2018-04-22T04:02:49.164Z,15.00
2018-04-22T04:03:53.409Z,15.00
2018-04-22T04:04:57.538Z,15.00
2018-04-22T04:06:01.763Z,15.10
2018-04-22T04:07:06.241Z,15.10
2018-04-22T04:08:10.621Z,15.10
2018-04-22T04:09:14.706Z,15.10
2018-04-22T04:10:18.842Z,15.10
2018-04-22T04:11:23.131Z,15.10
2018-04-22T04:12:29.042Z,15.00
2018-04-22T04:13:34.282Z,15.00
2018-04-22T04:14:38.409Z,15.00
2018-04-22T04:15:42.543Z,15.00
2018-04-22T04:16:46.612Z,15.00
2018-04-22T04:17:54.772Z,15.10
2018-04-22T04:23:15.237Z,15.10
2018-04-22T04:26:40.122Z,15.10
2018-04-22T04:27:46.616Z,15.10
2018-04-22T04:28:50.896Z,15.10
2018-04-22T04:29:55.639Z,15.10
2018-04-22T04:30:59.805Z,15.00
2018-04-22T04:32:03.938Z,15.00
2018-04-22T04:33:09.099Z,15.10
2018-04-22T04:34:13.278Z,15.00
2018-04-22T04:35:17.855Z,15.10
2018-04-22T04:36:22.380Z,15.10
2018-04-22T04:37:26.455Z,15.10
2018-04-22T04:38:30.786Z,15.10
2018-04-22T04:39:35.375Z,15.10
2018-04-22T04:40:40.805Z,15.10
2018-04-22T04:41:44.892Z,15.10
2018-04-22T04:43:20.266Z,15.10
2018-04-22T04:44:25.273Z,15.10
2018-04-22T04:45:29.437Z,15.10
2018-04-22T04:46:34.340Z,15.10
2018-04-22T04:47:40.177Z,15.10
2018-04-22T04:48:44.683Z,15.10
2018-04-22T04:49:49.713Z,15.10
2018-04-22T04:50:54.905Z,15.10
2018-04-22T04:52:00.360Z,15.10
2018-04-22T04:53:04.518Z,15.10
2018-04-22T04:54:09.367Z,15.10
2018-04-22T04:55:14.025Z,15.10
2018-04-22T04:56:19.519Z,15.10
2018-04-22T04:57:25.331Z,15.10
2018-04-22T04:58:32.590Z,15.10
2018-04-22T04:59:37.853Z,15.20
2018-04-22T05:00:41.985Z,15.20
2018-04-22T05:01:46.088Z,15.20
2018-04-22T05:02:50.253Z,15.20
2018-04-22T05:03:56.076Z,15.30
2018-04-22T05:05:00.951Z,15.40
2018-04-22T05:06:05.911Z,15.30
2018-04-22T05:07:11.112Z,15.40
2018-04-22T05:08:16.510Z,15.40
2018-04-22T05:09:20.664Z,15.40
2018-04-22T05:10:26.282Z,15.50
2018-04-22T05:11:31.808Z,15.40
2018-04-22T05:12:35.942Z,15.50
2018-04-22T05:13:41.261Z,15.50
2018-04-22T05:14:45.574Z,15.50
2018-04-22T05:15:50.495Z,15.50
2018-04-22T05:16:54.590Z,15.60
2018-04-22T05:17:58.849Z,15.60
2018-04-22T05:19:02.966Z,15.60
2018-04-22T05:20:07.046Z,15.60
2018-04-22T05:21:11.795Z,15.70
2018-04-22T05:22:16.050Z,15.70
2018-04-22T05:23:21.106Z,15.80
2018-04-22T05:24:25.275Z,15.80
2018-04-22T05:25:32.428Z,15.80
2018-04-22T05:26:36.535Z,15.90
2018-04-22T05:27:40.659Z,15.90
2018-04-22T05:28:45.993Z,16.00
2018-04-22T05:29:51.397Z,16.00
2018-04-22T05:30:56.313Z,16.00
2018-04-22T05:32:01.535Z,16.10
2018-04-22T05:33:07.110Z,16.20
2018-04-22T05:34:13.503Z,16.30
2018-04-22T05:35:18.067Z,16.20
2018-04-22T05:36:22.950Z,16.40
2018-04-22T05:37:28.395Z,16.30
2018-04-22T05:38:33.576Z,16.40
2018-04-22T05:39:38.868Z,16.50
2018-04-22T05:40:42.979Z,16.50
2018-04-22T05:41:47.238Z,16.60
2018-04-22T05:42:51.796Z,16.60
2018-04-22T05:43:56.367Z,16.60
2018-04-22T05:45:00.891Z,16.70
2018-04-22T05:46:05.304Z,16.70
2018-04-22T05:47:10.435Z,16.80
2018-04-22T05:48:15.798Z,16.80
2018-04-22T05:49:21.222Z,16.90
2018-04-22T05:50:25.490Z,16.90
2018-04-22T05:51:29.822Z,17.00
2018-04-22T05:52:34.981Z,17.00
2018-04-22T05:53:40.217Z,17.00
2018-04-22T05:54:45.102Z,17.10
2018-04-22T05:55:49.541Z,17.10
2018-04-22T05:56:54.658Z,17.30
2018-04-22T05:58:00.110Z,17.30
2018-04-22T05:59:05.754Z,17.30
2018-04-22T06:00:10.637Z,17.30
2018-04-22T06:01:16.830Z,17.30
2018-04-22T06:02:21.659Z,17.40
2018-04-22T06:03:25.737Z,17.40
2018-04-22T06:04:33.734Z,17.40
2018-04-22T06:05:37.854Z,17.40
2018-04-22T06:06:42.001Z,17.40
2018-04-22T06:07:46.161Z,17.40
2018-04-22T06:08:51.050Z,17.40
2018-04-22T06:09:56.934Z,17.50
2018-04-22T06:11:02.097Z,17.50
2018-04-22T06:12:08.685Z,17.60
2018-04-22T06:13:13.600Z,17.60
2018-04-22T06:14:18.591Z,17.60
2018-04-22T06:15:22.922Z,17.60
2018-04-22T06:16:27.817Z,17.60
2018-04-22T06:17:32.519Z,17.60
2018-04-22T06:18:39.319Z,17.60
2018-04-22T06:19:45.095Z,17.70
2018-04-22T06:20:51.434Z,17.90
2018-04-22T06:21:57.342Z,18.00
2018-04-22T06:23:02.163Z,17.90
2018-04-22T06:24:09.881Z,18.00
2018-04-22T06:25:15.702Z,18.00
2018-04-22T06:26:20.282Z,18.00
2018-04-22T06:27:26.793Z,18.00
2018-04-22T06:28:32.241Z,18.00
2018-04-22T06:29:37.461Z,18.00
2018-04-22T06:30:42.367Z,18.00
2018-04-22T06:31:47.281Z,18.10
2018-04-22T06:32:51.783Z,18.10
2018-04-22T06:33:56.327Z,18.20
2018-04-22T06:35:01.483Z,18.40
2018-04-22T06:36:05.942Z,18.30
2018-04-22T06:37:11.600Z,18.40
2018-04-22T06:38:16.735Z,18.40
2018-04-22T06:39:23.339Z,18.50
2018-04-22T06:40:28.151Z,18.50
2018-04-22T06:41:34.166Z,18.60
2018-04-22T06:42:39.331Z,18.80
2018-04-22T06:43:43.871Z,18.80
2018-04-22T06:44:49.463Z,18.70
2018-04-22T06:45:54.487Z,18.80
2018-04-22T06:46:59.746Z,18.80
2018-04-22T06:48:05.467Z,19.00
2018-04-22T06:49:10.032Z,19.00
2018-04-22T06:50:15.038Z,19.10
2018-04-22T06:51:20.017Z,19.10
2018-04-22T06:52:24.757Z,19.20
2018-04-22T06:53:29.136Z,19.20
2018-04-22T06:54:35.156Z,19.30
2018-04-22T06:55:40.827Z,19.40
2018-04-22T06:56:45.730Z,19.40
2018-04-22T06:57:51.489Z,19.50
2018-04-22T06:58:58.964Z,19.50
2018-04-22T07:00:03.461Z,19.40
2018-04-22T07:01:10.382Z,19.50
2018-04-22T07:02:14.600Z,19.50
2018-04-22T07:03:20.843Z,19.60
2018-04-22T07:04:30.051Z,19.60
2018-04-22T07:05:37.295Z,19.60
2018-04-22T07:06:45.367Z,19.60
2018-04-22T07:07:53.163Z,19.50
2018-04-22T07:08:59.817Z,19.50
2018-04-22T07:10:04.340Z,19.50
2018-04-22T07:11:09.252Z,19.50
2018-04-22T07:12:16.256Z,19.60
2018-04-22T07:13:23.391Z,19.50
2018-04-22T07:14:29.308Z,19.70
2018-04-22T07:15:35.433Z,19.70
2018-04-22T07:16:40.676Z,19.80
2018-04-22T07:17:45.592Z,19.80
2018-04-22T07:18:51.861Z,19.90
2018-04-22T07:19:55.952Z,19.90
2018-04-22T07:21:00.897Z,19.90
2018-04-22T07:22:06.386Z,19.90
2018-04-22T07:23:10.563Z,19.90
2018-04-22T07:24:15.490Z,20.00
2018-04-22T07:25:19.675Z,20.00
2018-04-22T07:26:24.034Z,20.10
2018-04-22T07:27:29.072Z,20.10
2018-04-22T07:28:33.864Z,20.10
2018-04-22T07:29:39.006Z,20.20
2018-04-22T07:30:43.160Z,20.20
2018-04-22T07:31:48.061Z,20.40
2018-04-22T07:32:52.548Z,20.30
2018-04-22T07:33:57.061Z,20.40
2018-04-22T07:35:01.590Z,20.50
2018-04-22T07:36:06.108Z,20.40
2018-04-22T07:37:11.052Z,20.40
2018-04-22T07:38:16.094Z,20.60
2018-04-22T07:39:21.858Z,20.60
2018-04-22T07:40:26.009Z,20.60
2018-04-22T07:41:30.611Z,20.60
2018-04-22T07:42:35.723Z,20.60
2018-04-22T07:43:39.909Z,20.60
2018-04-22T07:44:43.999Z,20.60
2018-04-22T07:45:48.706Z,20.70
2018-04-22T07:46:52.801Z,20.70
2018-04-22T07:48:00.371Z,20.80
2018-04-22T07:49:05.922Z,20.90
2018-04-22T07:50:10.309Z,20.90
2018-04-22T07:51:15.328Z,21.00
2018-04-22T07:52:19.719Z,21.00
2018-04-22T07:53:25.688Z,21.00
2018-04-22T07:54:31.266Z,21.10
2018-04-22T07:55:38.236Z,21.10
2018-04-22T07:56:44.320Z,21.10
2018-04-22T07:57:52.168Z,21.10
2018-04-22T07:58:57.251Z,21.10
2018-04-22T08:00:03.327Z,21.10
2018-04-22T08:01:08.989Z,21.00
2018-04-22T08:02:14.782Z,21.00
2018-04-22T08:03:19.269Z,21.10
2018-04-22T08:04:24.244Z,21.10
2018-04-22T08:05:30.187Z,21.20
2018-04-22T08:06:36.067Z,21.30
2018-04-22T08:07:40.218Z,21.40
2018-04-22T08:08:45.658Z,21.40
2018-04-22T08:09:50.889Z,21.50
2018-04-22T08:10:57.913Z,21.40
2018-04-22T08:12:02.608Z,21.40
2018-04-22T08:13:08.718Z,21.40
2018-04-22T08:14:14.016Z,21.50
2018-04-22T08:15:20.468Z,21.50
2018-04-22T08:16:25.164Z,21.50
2018-04-22T08:17:31.237Z,21.50
2018-04-22T08:18:35.593Z,21.60
2018-04-22T08:19:39.762Z,21.60
2018-04-22T08:20:44.964Z,21.70
2018-04-22T08:21:49.403Z,21.80
2018-04-22T08:22:53.969Z,21.90
2018-04-22T08:23:58.118Z,22.00
2018-04-22T08:25:02.336Z,22.10
2018-04-22T08:26:06.960Z,22.20
2018-04-22T08:27:12.714Z,22.30
2018-04-22T08:28:18.777Z,22.20
2018-04-22T08:29:24.164Z,22.30
2018-04-22T08:30:29.893Z,22.30
2018-04-22T08:31:42.595Z,22.30
2018-04-22T08:32:46.718Z,22.40
2018-04-22T08:33:52.034Z,22.30
2018-04-22T08:35:01.423Z,22.30
2018-04-22T08:36:07.263Z,22.30
2018-04-22T08:37:17.519Z,22.30
2018-04-22T08:38:24.426Z,22.30
2018-04-22T08:39:30.937Z,22.40
2018-04-22T08:40:36.106Z,22.50
2018-04-22T08:41:41.502Z,22.50
2018-04-22T08:42:46.237Z,22.60
2018-04-22T08:43:50.458Z,22.70
2018-04-22T08:45:00.198Z,22.80
2018-04-22T08:46:04.812Z,22.80
2018-04-22T08:47:11.374Z,22.80
2018-04-22T08:48:18.536Z,22.80
2018-04-22T08:49:22.968Z,22.90
2018-04-22T08:50:31.777Z,23.00
2018-04-22T08:51:39.896Z,23.00
2018-04-22T08:52:44.555Z,23.00
2018-04-22T08:53:50.644Z,23.10
2018-04-22T08:54:55.566Z,23.20
2018-04-22T08:56:01.971Z,23.30
2018-04-22T08:57:06.147Z,23.30
2018-04-22T08:58:10.752Z,23.30
2018-04-22T08:59:19.928Z,23.30
2018-04-22T09:00:28.009Z,23.30
2018-04-22T09:01:38.047Z,23.30
2018-04-22T09:02:44.933Z,23.40
2018-04-22T09:03:51.129Z,23.40
2018-04-22T09:04:57.686Z,23.50
2018-04-22T09:06:02.660Z,23.50
2018-04-22T09:07:07.506Z,23.60
2018-04-22T09:08:14.161Z,23.60
2018-04-22T09:09:21.545Z,23.70
2018-04-22T09:10:27.307Z,23.70
2018-04-22T09:11:37.971Z,23.70
2018-04-22T09:12:47.855Z,23.60
2018-04-22T09:13:54.399Z,23.70
2018-04-22T09:14:59.874Z,23.70
2018-04-22T09:16:06.340Z,23.70
2018-04-22T09:17:12.376Z,23.70
2018-04-22T09:18:19.010Z,23.80
2018-04-22T09:19:26.864Z,23.90
2018-04-22T09:20:41.595Z,23.80
2018-04-22T09:21:48.496Z,23.90
2018-04-22T09:22:56.139Z,23.90
2018-04-22T09:24:01.982Z,24.00
2018-04-22T09:25:12.774Z,24.10
2018-04-22T09:26:22.103Z,24.10
2018-04-22T09:27:32.415Z,24.10
2018-04-22T09:28:39.611Z,24.20
2018-04-22T09:29:47.298Z,24.30
2018-04-22T09:30:52.240Z,24.30
2018-04-22T09:31:57.409Z,24.40
2018-04-22T09:33:04.924Z,24.50
2018-04-22T09:34:14.982Z,24.50
2018-04-22T09:35:23.903Z,24.60
2018-04-22T09:36:41.127Z,24.70
2018-04-22T09:37:47.952Z,24.80
2018-04-22T09:38:55.607Z,24.90
2018-04-22T09:40:02.056Z,25.20
2018-04-22T09:41:08.935Z,25.30
2018-04-22T09:42:14.858Z,25.20
2018-04-22T09:43:21.209Z,25.30
2018-04-22T09:44:27.365Z,25.40
2018-04-22T09:45:35.796Z,25.40
2018-04-22T09:46:42.865Z,25.40
2018-04-22T09:47:51.371Z,25.40
2018-04-22T09:48:56.650Z,25.50
2018-04-22T09:50:03.232Z,25.50
2018-04-22T09:51:08.604Z,25.60
2018-04-22T09:52:16.293Z,25.80
2018-04-22T09:53:24.864Z,25.80
2018-04-22T09:54:34.028Z,25.70
2018-04-22T09:55:44.124Z,25.60
2018-04-22T09:56:48.888Z,25.70
2018-04-22T09:57:53.819Z,25.70
2018-04-22T09:59:00.987Z,25.80
2018-04-22T10:00:08.463Z,25.80
2018-04-22T10:01:18.381Z,25.80
2018-04-22T10:02:29.861Z,25.80
2018-04-22T10:03:41.008Z,25.90
2018-04-22T10:04:48.208Z,26.00
2018-04-22T10:05:56.114Z,26.00
2018-04-22T10:07:05.258Z,25.90
2018-04-22T10:08:10.589Z,25.90
2018-04-22T10:09:15.713Z,26.00
2018-04-22T10:10:24.211Z,26.00
2018-04-22T10:11:31.864Z,26.20
2018-04-22T10:12:37.614Z,26.40
2018-04-22T10:13:45.233Z,26.50
2018-04-22T10:14:50.081Z,26.40
2018-04-22T10:15:56.277Z,26.60
2018-04-22T10:17:02.483Z,26.60
2018-04-22T10:18:09.631Z,26.60
2018-04-22T10:19:14.821Z,26.70
2018-04-22T10:20:19.832Z,26.90
2018-04-22T10:21:26.700Z,26.90
2018-04-22T10:22:35.065Z,26.90
2018-04-22T10:23:39.438Z,27.10
2018-04-22T10:24:49.714Z,27.20
2018-04-22T10:25:55.838Z,27.20
2018-04-22T10:27:04.880Z,27.30
2018-04-22T10:28:10.054Z,27.30
2018-04-22T10:29:15.900Z,27.30
2018-04-22T10:30:21.329Z,27.30
2018-04-22T10:31:26.778Z,27.30
2018-04-22T10:32:34.069Z,27.40
2018-04-22T10:33:39.908Z,27.50
2018-04-22T10:34:45.779Z,27.40
2018-04-22T10:35:51.021Z,27.40
2018-04-22T10:36:56.638Z,27.50
2018-04-22T10:38:01.766Z,27.60
2018-04-22T10:39:07.986Z,27.70
2018-04-22T10:40:13.604Z,27.80
2018-04-22T10:41:19.170Z,27.80
2018-04-22T10:42:25.474Z,27.90
2018-04-22T10:43:32.366Z,27.90
2018-04-22T10:44:36.816Z,28.00
2018-04-22T10:45:42.468Z,28.10
2018-04-22T10:46:47.080Z,28.20
2018-04-22T10:47:51.256Z,28.40
2018-04-22T10:48:56.525Z,28.70
2018-04-22T10:50:02.043Z,28.60
2018-04-22T10:51:08.515Z,28.80
2018-04-22T10:52:13.324Z,28.80
2018-04-22T10:53:18.382Z,28.90
2018-04-22T10:54:23.402Z,28.90
2018-04-22T10:55:28.473Z,29.00
2018-04-22T10:56:37.462Z,29.00
2018-04-22T10:57:41.703Z,29.00
2018-04-22T10:58:48.138Z,29.10
2018-04-22T10:59:58.460Z,29.20
2018-04-22T11:01:03.646Z,29.20
2018-04-22T11:02:08.232Z,29.10
2018-04-22T11:03:14.070Z,29.30
2018-04-22T11:04:19.633Z,29.40
2018-04-22T11:05:24.843Z,29.30
2018-04-22T11:06:33.203Z,29.40
2018-04-22T11:07:40.789Z,29.40
2018-04-22T11:08:45.106Z,29.50
2018-04-22T11:09:50.471Z,29.50
2018-04-22T11:10:57.708Z,29.60
2018-04-22T11:12:02.901Z,29.60
2018-04-22T11:13:10.129Z,29.60
2018-04-22T11:14:18.250Z,29.40
2018-04-22T11:15:24.045Z,29.30
2018-04-22T11:16:30.984Z,29.40
2018-04-22T11:17:37.671Z,29.50
2018-04-22T11:18:42.753Z,29.70
2018-04-22T11:19:49.417Z,30.00
2018-04-22T11:20:56.157Z,30.10
2018-04-22T11:22:01.283Z,30.10
2018-04-22T11:23:08.538Z,30.10
2018-04-22T11:24:16.594Z,30.40
2018-04-22T11:25:23.719Z,30.40
2018-04-22T11:26:31.193Z,30.50
2018-04-22T11:27:39.090Z,30.50
2018-04-22T11:28:44.275Z,30.20
2018-04-22T11:29:52.000Z,30.20
2018-04-22T11:30:58.669Z,30.20
2018-04-22T11:32:08.080Z,30.30
2018-04-22T11:33:14.435Z,30.40
2018-04-22T11:34:20.336Z,30.50
2018-04-22T11:35:25.714Z,30.60
2018-04-22T11:36:30.838Z,30.80
2018-04-22T11:37:35.954Z,30.70
2018-04-22T11:38:40.331Z,30.80
2018-04-22T11:39:49.813Z,30.90
2018-04-22T11:40:54.098Z,31.00
2018-04-22T11:42:01.795Z,31.10
2018-04-22T11:43:06.887Z,31.20
2018-04-22T11:45:19.018Z,31.30
2018-04-22T11:46:24.191Z,31.30
2018-04-22T11:47:32.381Z,31.50
2018-04-22T11:48:40.666Z,31.60
2018-04-22T11:49:46.598Z,31.60
2018-04-22T11:50:51.459Z,31.60
2018-04-22T11:51:55.604Z,31.60
2018-04-22T11:53:00.726Z,31.70
2018-04-22T11:54:07.072Z,31.80
2018-04-22T11:55:20.996Z,31.80
2018-04-22T11:56:26.953Z,31.90
2018-04-22T11:57:34.448Z,31.90
2018-04-22T11:58:39.102Z,32.00
2018-04-22T11:59:45.073Z,32.10
2018-04-22T12:00:53.108Z,32.10
2018-04-22T12:01:59.393Z,32.10
2018-04-22T12:03:05.329Z,32.40
2018-04-22T12:04:13.003Z,32.30
2018-04-22T12:05:17.187Z,32.40
2018-04-22T12:06:22.598Z,32.30
2018-04-22T12:07:31.021Z,32.00
2018-04-22T12:08:41.174Z,31.70
2018-04-22T12:09:47.559Z,31.70
2018-04-22T12:10:54.164Z,32.00
2018-04-22T12:12:00.786Z,32.00
2018-04-22T12:13:07.444Z,32.20
2018-04-22T12:14:14.276Z,32.30
2018-04-22T12:15:21.731Z,32.30
2018-04-22T12:16:29.080Z,32.50
2018-04-22T12:17:38.797Z,32.70
2018-04-22T12:18:43.976Z,32.70
2018-04-22T12:19:48.136Z,32.80
2018-04-22T12:20:54.640Z,32.90
2018-04-22T12:22:02.594Z,32.90
2018-04-22T12:23:08.874Z,32.90
2018-04-22T12:24:13.628Z,33.00
2018-04-22T12:25:17.781Z,33.00
2018-04-22T12:26:26.349Z,32.90
2018-04-22T12:27:38.568Z,32.90
2018-04-22T12:28:45.015Z,32.80
2018-04-22T12:29:54.785Z,32.90
2018-04-22T12:30:59.889Z,32.90
2018-04-22T12:32:05.633Z,32.80
2018-04-22T12:33:13.175Z,32.50
2018-04-22T12:34:18.870Z,32.50
2018-04-22T12:35:26.326Z,32.20
2018-04-22T12:36:35.879Z,31.70
2018-04-22T12:37:41.964Z,31.40
2018-04-22T12:38:47.520Z,31.40
2018-04-22T12:39:54.179Z,31.20
2018-04-22T12:40:59.639Z,31.00
2018-04-22T12:42:07.735Z,30.50
2018-04-22T12:43:17.327Z,30.20
2018-04-22T12:44:21.523Z,30.20
2018-04-22T12:45:28.491Z,30.00
2018-04-22T12:46:37.896Z,29.80
2018-04-22T12:47:44.846Z,29.70
2018-04-22T12:48:51.370Z,29.30
2018-04-22T12:49:57.066Z,29.30
2018-04-22T12:51:02.877Z,29.20
2018-04-22T12:52:21.761Z,29.10
2018-04-22T12:53:29.513Z,28.90
2018-04-22T12:54:36.720Z,28.80
2018-04-22T12:55:42.701Z,28.70
2018-04-22T12:56:50.156Z,28.70
2018-04-22T12:57:56.086Z,28.60
2018-04-22T12:59:04.756Z,28.50
2018-04-22T13:00:12.406Z,28.50
2018-04-22T13:01:19.614Z,28.40
2018-04-22T13:02:26.661Z,28.30
2018-04-22T13:03:36.738Z,28.20
2018-04-22T13:04:43.029Z,28.10
2018-04-22T13:05:49.737Z,28.00
2018-04-22T13:06:55.613Z,27.90
2018-04-22T13:08:03.554Z,27.80
2018-04-22T13:09:11.342Z,27.80
2018-04-22T13:10:15.784Z,27.70
2018-04-22T13:11:24.323Z,27.70
2018-04-22T13:12:29.362Z,27.70
2018-04-22T13:13:35.891Z,27.60
2018-04-22T13:14:41.433Z,27.40
2018-04-22T13:15:47.263Z,26.20
2018-04-22T13:16:52.502Z,24.80
2018-04-22T13:17:59.906Z,23.60
2018-04-22T13:19:06.283Z,23.50
2018-04-22T13:20:13.156Z,23.00
2018-04-22T13:21:18.149Z,22.80
2018-04-22T13:22:25.167Z,22.50
2018-04-22T13:23:34.605Z,21.30
2018-04-22T13:24:40.291Z,19.80
2018-04-22T13:25:46.871Z,18.80
2018-04-22T13:26:55.949Z,17.40
2018-04-22T13:28:00.743Z,17.40
2018-04-22T13:29:06.557Z,16.90
2018-04-22T13:30:11.542Z,16.90
2018-04-22T13:31:19.033Z,16.90
2018-04-22T13:32:25.015Z,17.00
2018-04-22T13:33:32.297Z,16.90
2018-04-22T13:34:37.739Z,16.90
2018-04-22T13:35:42.557Z,17.00
2018-04-22T13:36:48.872Z,17.00
2018-04-22T13:37:53.240Z,17.00
2018-04-22T13:39:00.956Z,17.00
2018-04-22T13:40:06.239Z,17.00
2018-04-22T13:41:14.302Z,17.00
2018-04-22T13:42:19.169Z,17.10
2018-04-22T13:43:26.703Z,17.10
2018-04-22T13:44:32.893Z,17.10
2018-04-22T13:45:39.057Z,17.20
2018-04-22T13:46:45.651Z,17.50
2018-04-22T13:47:53.215Z,17.40
2018-04-22T13:49:00.457Z,17.70
2018-04-22T13:50:08.436Z,18.00
2018-04-22T13:51:13.918Z,18.30
2018-04-22T13:52:21.350Z,18.90
2018-04-22T13:53:26.869Z,18.80
2018-04-22T13:54:35.466Z,19.10
2018-04-22T13:55:41.198Z,19.30
2018-04-22T13:56:49.243Z,19.70
2018-04-22T13:57:57.194Z,20.00
2018-04-22T13:59:02.189Z,20.00
2018-04-22T14:00:08.126Z,21.00
2018-04-22T14:01:14.930Z,21.30
2018-04-22T14:02:19.100Z,21.30
2018-04-22T14:03:26.002Z,21.50
2018-04-22T14:04:34.701Z,21.50
2018-04-22T14:05:40.736Z,21.60
2018-04-22T14:06:49.723Z,21.70
2018-04-22T14:07:56.684Z,21.70
2018-04-22T14:09:02.102Z,22.00
2018-04-22T14:10:06.965Z,22.10
2018-04-22T14:11:15.064Z,21.80
2018-04-22T14:12:20.755Z,21.60
2018-04-22T14:13:29.710Z,21.60
2018-04-22T14:14:37.656Z,21.10
2018-04-22T14:15:44.553Z,20.70